createdAt,value
2023-05-14T00:01:41.808Z,10.37
2023-05-14T00:04:43.760Z,10.42
2023-05-14T00:07:45.670Z,10.27
2023-05-14T00:10:47.527Z,9.95
2023-05-14T00:13:50.323Z,9.94
2023-05-14T00:16:52.236Z,9.96
2023-05-14T00:19:54.111Z,10.20
2023-05-14T00:22:56.432Z,9.95
2023-05-14T00:25:58.468Z,9.89
2023-05-14T00:29:00.476Z,9.93
2023-05-14T00:32:03.780Z,9.73
2023-05-14T00:35:06.136Z,9.98
2023-05-14T00:38:08.108Z,9.98
2023-05-14T00:41:10.004Z,9.87
2023-05-14T00:44:11.931Z,9.83
2023-05-14T00:47:13.918Z,9.97
2023-05-14T00:50:16.844Z,9.56
2023-05-14T00:53:20.717Z,9.72
2023-05-14T00:56:23.281Z,9.58
2023-05-14T00:59:25.930Z,9.60
2023-05-14T01:02:27.935Z,9.32
2023-05-14T01:05:54.116Z,9.56
2023-05-14T01:09:01.976Z,9.06
2023-05-14T01:12:29.844Z,9.38
2023-05-14T01:15:34.699Z,9.34
2023-05-14T01:18:37.071Z,9.21
2023-05-14T01:21:43.693Z,9.28
2023-05-14T01:24:45.726Z,9.15
2023-05-14T01:28:18.276Z,9.32
2023-05-14T01:31:27.975Z,9.21
2023-05-14T01:34:31.394Z,9.30
2023-05-14T01:37:33.660Z,9.29
2023-05-14T01:40:36.571Z,9.44
2023-05-14T01:43:39.487Z,9.24
2023-05-14T01:46:41.447Z,9.41
2023-05-14T01:49:43.635Z,9.45
2023-05-14T01:52:45.507Z,9.55
2023-05-14T01:55:47.451Z,9.44
2023-05-14T01:58:49.965Z,9.64
2023-05-14T02:01:52.010Z,9.56
2023-05-14T02:04:54.039Z,9.69
2023-05-14T02:07:56.065Z,9.50
2023-05-14T02:10:58.019Z,9.51
2023-05-14T02:14:00.244Z,9.57
2023-05-14T02:17:02.109Z,9.63
2023-05-14T02:20:04.498Z,9.54
2023-05-14T02:23:06.554Z,9.50
2023-05-14T02:26:09.873Z,9.40
2023-05-14T02:29:11.801Z,9.52
2023-05-14T02:32:13.847Z,9.61
2023-05-14T02:35:15.755Z,9.51
2023-05-14T02:38:17.797Z,9.32
2023-05-14T02:41:20.069Z,9.30
2023-05-14T02:44:21.932Z,9.51
2023-05-14T02:47:23.829Z,9.34
2023-05-14T02:50:25.997Z,9.32
2023-05-14T02:53:28.132Z,9.42
2023-05-14T02:56:30.043Z,9.23
2023-05-14T02:59:32.018Z,9.26
2023-05-14T03:02:34.735Z,9.35
2023-05-14T03:05:37.089Z,9.34
2023-05-14T03:08:39.002Z,9.46
2023-05-14T03:11:40.962Z,9.42
2023-05-14T03:14:42.873Z,9.19
2023-05-14T03:17:44.819Z,9.21
2023-05-14T03:20:46.733Z,9.11
2023-05-14T03:23:48.779Z,9.33
2023-05-14T03:26:53.529Z,9.20
2023-05-14T03:29:55.615Z,9.26
2023-05-14T03:32:57.898Z,9.43
2023-05-14T03:35:59.856Z,9.12
2023-05-14T03:39:02.255Z,9.31
2023-05-14T03:42:04.420Z,9.46
2023-05-14T03:45:07.194Z,9.62
2023-05-14T03:48:09.640Z,9.60
2023-05-14T03:51:12.625Z,9.80
2023-05-14T03:54:14.498Z,9.84
2023-05-14T03:57:16.468Z,9.90
2023-05-14T04:00:18.612Z,9.66
2023-05-14T04:03:20.503Z,9.95
2023-05-14T04:06:22.488Z,10.07
2023-05-14T04:09:24.416Z,10.44
2023-05-14T04:12:26.815Z,10.82
2023-05-14T04:15:29.388Z,10.53
2023-05-14T04:18:34.978Z,10.94
2023-05-14T04:21:36.886Z,11.35
2023-05-14T04:24:38.797Z,11.20
2023-05-14T04:27:40.660Z,11.83
2023-05-14T04:30:42.492Z,12.07
2023-05-14T04:33:44.382Z,11.78
2023-05-14T04:36:46.693Z,12.08
2023-05-14T04:39:48.564Z,12.18
2023-05-14T04:42:50.500Z,12.46
2023-05-14T04:45:52.767Z,11.84
2023-05-14T04:48:54.686Z,11.83
2023-05-14T04:51:56.601Z,11.48
2023-05-14T04:54:58.495Z,12.20
2023-05-14T04:58:00.433Z,12.87
2023-05-14T05:01:05.062Z,12.40
2023-05-14T05:04:07.864Z,12.32
2023-05-14T05:07:09.972Z,12.65
2023-05-14T05:10:12.004Z,12.49
2023-05-14T05:13:14.291Z,12.67
2023-05-14T05:16:16.213Z,12.69
2023-05-14T05:19:18.841Z,13.01
2023-05-14T05:22:22.240Z,12.93
2023-05-14T05:25:24.202Z,13.42
2023-05-14T05:28:26.029Z,13.45
2023-05-14T05:31:27.999Z,13.98
2023-05-14T05:34:29.951Z,13.71
2023-05-14T05:37:31.962Z,13.40
2023-05-14T05:40:33.972Z,13.80
2023-05-14T05:43:35.882Z,13.59
2023-05-14T05:46:37.930Z,14.00
2023-05-14T05:49:39.877Z,14.04
2023-05-14T05:52:41.886Z,14.25
2023-05-14T05:55:43.882Z,14.12
2023-05-14T05:58:45.785Z,14.61
2023-05-14T06:01:48.209Z,14.73
2023-05-14T06:04:50.203Z,14.87
2023-05-14T06:07:53.680Z,14.81
2023-05-14T06:10:55.582Z,14.96
2023-05-14T06:13:57.689Z,14.63
2023-05-14T06:16:59.908Z,14.87
2023-05-14T06:20:01.973Z,14.87
2023-05-14T06:23:03.889Z,14.92
2023-05-14T06:26:05.920Z,14.67
2023-05-14T06:29:08.593Z,14.72
2023-05-14T06:32:10.645Z,14.73
2023-05-14T06:35:12.541Z,14.71
2023-05-14T06:38:14.407Z,14.60
2023-05-14T06:41:17.093Z,14.69
2023-05-14T06:44:19.558Z,15.13
2023-05-14T06:47:21.865Z,15.06
2023-05-14T06:50:24.073Z,14.91
2023-05-14T06:53:26.143Z,14.81
2023-05-14T06:56:28.037Z,15.20
2023-05-14T06:59:29.934Z,15.48
2023-05-14T07:02:32.320Z,15.49
2023-05-14T07:05:34.242Z,15.63
2023-05-14T07:08:36.154Z,15.44
2023-05-14T07:11:38.003Z,15.49
2023-05-14T07:14:40.269Z,15.64
2023-05-14T07:17:42.118Z,15.43
2023-05-14T07:20:44.080Z,15.42
2023-05-14T07:23:45.979Z,15.73
2023-05-14T07:26:48.034Z,15.61
2023-05-14T07:29:50.398Z,15.51
2023-05-14T07:32:52.371Z,15.92
2023-05-14T07:35:54.465Z,15.80
2023-05-14T07:38:56.485Z,16.07
2023-05-14T07:41:58.421Z,16.41
2023-05-14T07:45:00.353Z,16.12
2023-05-14T07:48:02.372Z,16.39
2023-05-14T07:51:04.648Z,16.39
2023-05-14T07:54:06.691Z,16.51
2023-05-14T07:57:08.635Z,16.36
2023-05-14T08:00:11.299Z,16.76
2023-05-14T08:03:15.810Z,16.45
2023-05-14T08:06:17.691Z,16.96
2023-05-14T08:09:19.500Z,17.05
2023-05-14T08:12:21.330Z,17.10
2023-05-14T08:15:24.547Z,16.87
2023-05-14T08:18:28.364Z,16.80
2023-05-14T08:21:30.292Z,16.63
2023-05-14T08:24:32.130Z,17.05
2023-05-14T08:27:34.060Z,17.32
2023-05-14T08:30:35.947Z,16.78
2023-05-14T08:33:37.827Z,16.86
2023-05-14T08:36:39.715Z,16.83
2023-05-14T08:39:41.556Z,16.92
2023-05-14T08:42:45.225Z,16.83
2023-05-14T08:45:49.804Z,17.06
2023-05-14T08:49:00.664Z,16.99
2023-05-14T08:52:02.814Z,17.42
2023-05-14T08:55:06.324Z,17.72
2023-05-14T08:58:08.320Z,17.56
2023-05-14T09:01:10.194Z,17.55
2023-05-14T09:04:13.264Z,17.68
2023-05-14T09:07:15.958Z,17.56
2023-05-14T09:10:18.683Z,17.59
2023-05-14T09:13:20.682Z,18.01
2023-05-14T09:16:23.972Z,17.74
2023-05-14T09:19:26.332Z,17.91
2023-05-14T09:22:31.918Z,18.04
2023-05-14T09:25:33.871Z,18.04
2023-05-14T09:28:35.728Z,17.77
2023-05-14T09:31:37.628Z,18.14
2023-05-14T09:34:40.049Z,18.18
2023-05-14T09:37:43.797Z,18.69
2023-05-14T09:40:46.620Z,18.56
2023-05-14T09:43:49.438Z,18.89
2023-05-14T09:46:53.166Z,18.57
2023-05-14T09:49:55.082Z,18.50
2023-05-14T09:52:57.006Z,18.45
2023-05-14T09:55:58.947Z,19.07
2023-05-14T09:59:01.219Z,18.70
2023-05-14T10:02:05.622Z,19.07
2023-05-14T10:05:08.380Z,19.35
2023-05-14T10:08:20.074Z,19.23
2023-05-14T10:11:27.681Z,19.56
2023-05-14T10:14:36.090Z,19.16
2023-05-14T10:17:41.041Z,19.29
2023-05-14T10:20:44.115Z,19.08
2023-05-14T10:23:46.897Z,18.74
2023-05-14T10:26:49.055Z,18.46
2023-05-14T10:29:55.141Z,18.79
2023-05-14T10:33:08.185Z,18.86
2023-05-14T10:36:10.327Z,18.57
2023-05-14T10:39:12.238Z,18.79
2023-05-14T10:42:19.804Z,18.87
2023-05-14T10:45:23.058Z,18.91
2023-05-14T10:48:26.067Z,18.85
2023-05-14T10:55:01.942Z,18.86
2023-05-14T10:58:05.992Z,18.72
2023-05-14T11:01:10.187Z,18.97
2023-05-14T11:04:24.295Z,18.88
2023-05-14T11:07:50.110Z,18.67
2023-05-14T11:10:52.390Z,18.92
2023-05-14T11:13:54.999Z,19.26
2023-05-14T11:16:57.629Z,19.05
2023-05-14T11:20:00.281Z,19.20
2023-05-14T11:23:02.219Z,19.18
2023-05-14T11:26:04.312Z,18.90
2023-05-14T11:29:06.204Z,18.95
2023-05-14T11:32:08.232Z,19.08
2023-05-14T11:35:10.327Z,19.11
2023-05-14T11:38:19.347Z,19.02
2023-05-14T11:41:21.693Z,19.02
2023-05-14T11:44:23.939Z,19.01
2023-05-14T11:47:25.872Z,19.00
2023-05-14T11:50:28.007Z,18.96
2023-05-14T11:53:31.123Z,19.12
2023-05-14T11:56:33.079Z,18.94
2023-05-14T11:59:35.052Z,19.15
2023-05-14T12:02:37.846Z,19.30
2023-05-14T12:05:40.270Z,19.29
2023-05-14T12:08:42.440Z,19.26
2023-05-14T12:11:46.445Z,19.41
2023-05-14T12:14:50.072Z,19.49
2023-05-14T12:17:52.346Z,19.50
2023-05-14T12:20:54.293Z,19.43
2023-05-14T12:24:02.059Z,19.32
2023-05-14T12:27:04.044Z,19.22
2023-05-14T12:30:20.658Z,19.21
2023-05-14T12:33:26.658Z,19.27
2023-05-14T12:36:30.829Z,19.25
2023-05-14T12:39:34.263Z,19.15
2023-05-14T12:42:36.508Z,19.29
2023-05-14T12:45:38.490Z,19.24
2023-05-14T12:48:40.308Z,19.19
2023-05-14T12:51:42.149Z,19.25
2023-05-14T12:54:44.049Z,19.24
2023-05-14T12:57:45.951Z,19.18
2023-05-14T13:00:48.055Z,19.27
2023-05-14T13:03:50.182Z,19.37
2023-05-14T13:06:52.456Z,19.23
2023-05-14T13:09:54.487Z,19.15
2023-05-14T13:12:56.613Z,19.05
2023-05-14T13:15:58.534Z,19.04
2023-05-14T13:19:00.567Z,18.86
2023-05-14T13:22:02.556Z,18.73
2023-05-14T13:25:05.019Z,18.57
2023-05-14T13:28:06.966Z,18.60
2023-05-14T13:31:11.354Z,18.46
2023-05-14T13:34:13.656Z,18.47
2023-05-14T13:37:15.641Z,18.55
2023-05-14T13:40:17.575Z,18.65
2023-05-14T13:43:19.466Z,18.65
2023-05-14T13:46:21.571Z,18.62
2023-05-14T13:49:23.510Z,18.62
2023-05-14T13:52:25.685Z,18.61
2023-05-14T13:55:27.610Z,18.68
2023-05-14T13:58:29.490Z,18.65
2023-05-14T14:01:31.805Z,18.65
2023-05-14T14:04:33.999Z,18.66
2023-05-14T14:07:35.922Z,18.47
2023-05-14T14:10:40.868Z,18.41
2023-05-14T14:13:45.040Z,18.47
2023-05-14T14:16:48.347Z,18.38
2023-05-14T14:19:50.292Z,18.34
2023-05-14T14:22:52.181Z,18.15
2023-05-14T14:25:53.991Z,18.11
2023-05-14T14:28:55.822Z,18.01
2023-05-14T14:31:57.736Z,17.92
2023-05-14T14:34:59.627Z,17.88
2023-05-14T14:38:01.762Z,17.72
2023-05-14T14:41:03.620Z,17.47
2023-05-14T14:44:06.012Z,17.52
2023-05-14T14:47:07.902Z,17.36
2023-05-14T14:50:09.774Z,17.33
2023-05-14T14:53:11.646Z,17.18
2023-05-14T14:56:13.531Z,16.95
2023-05-14T14:59:15.376Z,16.92
2023-05-14T15:02:17.403Z,16.87
2023-05-14T15:05:19.267Z,16.75
2023-05-14T15:08:26.246Z,16.67
2023-05-14T15:11:29.090Z,16.73
2023-05-14T15:14:30.921Z,16.73
2023-05-14T15:17:32.999Z,16.62
2023-05-14T15:20:34.964Z,16.30
2023-05-14T15:23:36.869Z,16.41
2023-05-14T15:26:38.882Z,16.26
2023-05-14T15:29:41.554Z,16.37
2023-05-14T15:32:44.752Z,16.23
2023-05-14T15:35:46.739Z,16.29
2023-05-14T15:38:48.685Z,16.09
2023-05-14T15:41:50.699Z,16.25
2023-05-14T15:44:52.582Z,16.32
2023-05-14T15:47:54.807Z,16.15
2023-05-14T15:50:56.882Z,16.07
2023-05-14T15:53:58.926Z,15.93
2023-05-14T15:57:01.371Z,16.05
2023-05-14T16:00:10.411Z,16.02
2023-05-14T16:03:12.850Z,16.05
2023-05-14T16:06:14.835Z,15.95
2023-05-14T16:09:16.678Z,15.81
2023-05-14T16:12:18.685Z,15.80
2023-05-14T16:15:20.864Z,15.74
2023-05-14T16:18:25.179Z,15.80
2023-05-14T16:21:27.392Z,15.81
2023-05-14T16:24:29.269Z,15.76
2023-05-14T16:27:31.669Z,15.74
2023-05-14T16:30:33.683Z,15.71
2023-05-14T16:33:35.835Z,15.79
2023-05-14T16:36:37.778Z,15.73
2023-05-14T16:39:39.813Z,15.48
2023-05-14T16:42:41.995Z,15.65
2023-05-14T16:45:43.855Z,15.24
2023-05-14T16:48:45.918Z,15.33
2023-05-14T16:51:48.022Z,15.25
2023-05-14T16:54:49.865Z,15.15
2023-05-14T16:57:51.694Z,15.06
2023-05-14T17:00:53.561Z,14.91
2023-05-14T17:03:56.171Z,14.81
2023-05-14T17:06:58.197Z,14.83
2023-05-14T17:10:00.772Z,14.56
2023-05-14T17:13:03.289Z,14.60
2023-05-14T17:16:05.650Z,14.45
2023-05-14T17:19:08.763Z,14.32
2023-05-14T17:22:10.945Z,14.07
2023-05-14T17:25:13.104Z,14.19
2023-05-14T17:28:15.156Z,14.29
2023-05-14T17:31:17.168Z,14.48
2023-05-14T17:34:19.049Z,14.65
2023-05-14T17:37:21.020Z,14.64
2023-05-14T17:40:22.931Z,14.62
2023-05-14T17:43:24.835Z,14.62
2023-05-14T17:46:27.059Z,14.29
2023-05-14T17:49:29.138Z,14.47
2023-05-14T17:52:31.057Z,14.51
2023-05-14T17:55:33.198Z,14.36
2023-05-14T17:58:36.149Z,14.34
2023-05-14T18:01:38.040Z,14.07
2023-05-14T18:04:39.835Z,13.95
2023-05-14T18:07:41.718Z,13.76
2023-05-14T18:10:43.658Z,13.89
2023-05-14T18:13:45.978Z,14.12
2023-05-14T18:16:48.377Z,14.09
2023-05-14T18:19:50.322Z,14.17
2023-05-14T18:22:52.452Z,14.11
2023-05-14T18:25:54.738Z,14.13
2023-05-14T18:28:58.157Z,13.89
2023-05-14T18:32:00.005Z,13.89
2023-05-14T18:35:02.094Z,14.05
2023-05-14T18:38:04.152Z,14.07
2023-05-14T18:41:06.111Z,13.91
2023-05-14T18:44:08.033Z,13.90
2023-05-14T18:47:10.106Z,13.71
2023-05-14T18:50:11.945Z,13.57
2023-05-14T18:53:15.032Z,13.38
2023-05-14T18:56:16.958Z,13.26
2023-05-14T18:59:20.162Z,13.21
2023-05-14T19:02:22.153Z,13.10
2023-05-14T19:05:24.393Z,13.27
2023-05-14T19:08:26.446Z,13.22
2023-05-14T19:11:28.638Z,13.26
2023-05-14T19:14:31.320Z,13.17
2023-05-14T19:17:33.494Z,13.13
2023-05-14T19:20:35.627Z,13.10
2023-05-14T19:23:37.679Z,13.05
2023-05-14T19:26:39.672Z,12.94
2023-05-14T19:29:41.891Z,12.99
2023-05-14T19:32:43.956Z,12.98
2023-05-14T19:35:46.699Z,12.98
2023-05-14T19:38:48.734Z,12.93
2023-05-14T19:41:50.573Z,12.90
2023-05-14T19:44:52.711Z,12.94
2023-05-14T19:47:54.728Z,12.94
2023-05-14T19:50:59.058Z,12.86
2023-05-14T19:54:01.202Z,12.98
2023-05-14T19:57:03.492Z,12.93
2023-05-14T20:00:08.888Z,12.97
2023-05-14T20:03:13.664Z,12.99
2023-05-14T20:06:17.404Z,12.86
2023-05-14T20:09:20.132Z,12.85
2023-05-14T20:12:22.031Z,12.95
2023-05-14T20:15:23.925Z,12.88
2023-05-14T20:18:25.980Z,13.02
2023-05-14T20:21:28.168Z,13.03
2023-05-14T20:24:30.054Z,12.98
2023-05-14T20:27:32.736Z,13.08
2023-05-14T20:30:34.685Z,13.00
2023-05-14T20:33:36.556Z,13.12
2023-05-14T20:36:38.443Z,13.05
2023-05-14T20:39:40.385Z,13.08
2023-05-14T20:42:42.383Z,13.01
2023-05-14T20:45:44.265Z,12.98
2023-05-14T20:48:47.341Z,13.00
2023-05-14T20:51:49.220Z,13.02
2023-05-14T20:54:51.080Z,13.08
2023-05-14T20:57:52.948Z,13.08
2023-05-14T21:00:54.872Z,13.02
2023-05-14T21:03:56.995Z,13.08
2023-05-14T21:06:58.996Z,13.07
2023-05-14T21:10:01.852Z,13.07
2023-05-14T21:13:03.876Z,12.97
2023-05-14T21:16:06.164Z,13.00
2023-05-14T21:19:08.254Z,12.99
2023-05-14T21:22:10.157Z,13.12
2023-05-14T21:25:12.138Z,13.02
2023-05-14T21:28:14.076Z,13.06
2023-05-14T21:31:16.140Z,13.10
2023-05-14T21:34:17.937Z,13.11
2023-05-14T21:37:21.718Z,13.09
2023-05-14T21:40:23.664Z,13.00
2023-05-14T21:43:25.972Z,13.00
2023-05-14T21:46:28.994Z,13.03
2023-05-14T21:49:31.198Z,13.04
2023-05-14T21:52:33.586Z,12.98
2023-05-14T21:55:35.826Z,12.98
2023-05-14T21:58:37.793Z,12.96
2023-05-14T22:02:04.810Z,12.97
2023-05-14T22:05:01.531Z,12.94
2023-05-14T22:08:03.417Z,12.92
2023-05-14T22:11:05.410Z,12.88
2023-05-14T22:14:07.272Z,12.91
2023-05-14T22:17:09.558Z,12.97
2023-05-14T22:20:11.590Z,12.93
2023-05-14T22:23:13.387Z,12.97
2023-05-14T22:26:16.128Z,12.98
2023-05-14T22:29:18.006Z,12.91
2023-05-14T22:32:19.823Z,12.87
2023-05-14T22:35:21.724Z,12.82
2023-05-14T22:38:23.611Z,12.78
2023-05-14T22:41:26.754Z,12.80
2023-05-14T22:44:30.059Z,12.85
2023-05-14T22:47:32.060Z,12.84
2023-05-14T22:50:34.065Z,12.81
2023-05-14T22:53:35.996Z,12.87
2023-05-14T22:56:38.289Z,12.78
2023-05-14T22:59:40.231Z,12.86
2023-05-14T23:02:42.241Z,12.89
2023-05-14T23:05:44.210Z,12.82
2023-05-14T23:08:46.257Z,12.75
2023-05-14T23:11:48.128Z,12.84
2023-05-14T23:14:50.115Z,12.83
2023-05-14T23:17:52.150Z,12.88
2023-05-14T23:20:54.101Z,12.82
2023-05-14T23:23:55.935Z,12.87
2023-05-14T23:26:57.923Z,12.75
2023-05-14T23:29:59.844Z,12.77
2023-05-14T23:33:01.816Z,12.78
2023-05-14T23:36:03.902Z,12.81
2023-05-14T23:39:05.945Z,12.74
2023-05-14T23:42:07.806Z,12.75
2023-05-14T23:45:10.214Z,12.69
2023-05-14T23:48:12.064Z,12.77
2023-05-14T23:51:13.894Z,12.81
2023-05-14T23:54:17.296Z,12.86
2023-05-14T23:57:19.339Z,12.75
